Time;durP1;ratioP1;P1;durP2;ratioP2;P2;SDS_P1;SDS_P2;PMS_P1;PMS_P2;Temp;Humidity;BMP_temperature;BMP_pressure;BME280_temperature;BME280_humidity;BME280_pressure;Samples;Min_cycle;Max_cycle;Signal;HPM_P1;HPM_P2
2023/08/31 00:00:09;;;;;;;;;8.00;2.50;;;;;-146.67;100.00;57155.34;5081540;28;8704;-76
2023/08/31 00:02:34;;;;;;;;;4.00;3.00;;;;;-146.67;100.00;57155.34;5063314;28;10475;-76
2023/08/31 00:05:00;;;;;;;;;2.25;2.25;;;;;-146.67;100.00;57155.34;5081908;28;10370;-76
2023/08/31 00:07:25;;;;;;;;;3.25;3.00;;;;;-146.67;100.00;57155.34;5060560;28;8793;-76
2023/08/31 00:09:51;;;;;;;;;3.75;2.50;;;;;-146.67;100.00;57155.34;5061853;28;8793;-76
2023/08/31 00:12:16;;;;;;;;;4.00;3.00;;;;;-146.67;100.00;57155.34;5077362;28;8798;-76
2023/08/31 00:14:41;;;;;;;;;3.50;3.50;;;;;-146.67;100.00;57155.34;5063629;28;8799;-76
2023/08/31 00:17:07;;;;;;;;;3.00;3.00;;;;;-146.67;100.00;57155.34;5081643;28;8783;-76
2023/08/31 00:19:32;;;;;;;;;4.75;2.75;;;;;-146.67;100.00;57155.34;5062749;28;9079;-76
2023/08/31 00:21:57;;;;;;;;;3.75;3.75;;;;;-146.67;100.00;57155.34;5080419;28;8825;-76
2023/08/31 00:24:28;;;;;;;;;4.00;2.00;;;;;-146.67;100.00;57155.34;5080280;28;9288;-76
2023/08/31 00:26:53;;;;;;;;;5.25;2.75;;;;;-146.67;100.00;57155.34;5062703;28;8879;-76
2023/08/31 00:29:19;;;;;;;;;1.75;1.75;;;;;-146.67;100.00;57155.34;5080103;28;10505;-76
2023/08/31 00:31:45;;;;;;;;;3.75;3.00;;;;;-146.67;100.00;57155.34;5080835;28;9064;-76
2023/08/31 00:34:11;;;;;;;;;3.50;3.50;;;;;-146.67;100.00;57155.34;5080963;28;10391;-76
2023/08/31 00:36:38;;;;;;;;;3.00;2.25;;;;;-146.67;100.00;57155.34;5081411;28;8750;-76
2023/08/31 00:39:10;;;;;;;;;3.50;3.00;;;;;-146.67;100.00;57155.34;5063235;28;10247;-76
2023/08/31 00:41:35;;;;;;;;;1.50;1.50;;;;;-146.67;100.00;57155.34;5081365;28;11124;-76
2023/08/31 00:44:01;;;;;;;;;2.25;2.25;;;;;-146.67;100.00;57155.34;5063219;28;10082;-76
2023/08/31 00:46:27;;;;;;;;;3.75;1.25;;;;;-146.67;100.00;57155.34;5097075;28;8723;-76
2023/08/31 00:48:54;;;;;;;;;4.75;4.00;;;;;-146.67;100.00;57155.34;5081796;28;10227;-76
2023/08/31 00:51:19;;;;;;;;;1.50;1.50;;;;;-146.67;100.00;57155.34;5084650;28;8984;-76
2023/08/31 00:53:45;;;;;;;;;2.00;2.00;;;;;-146.67;100.00;57155.34;5079950;28;10274;-76
2023/08/31 00:56:10;;;;;;;;;3.50;2.00;;;;;-146.67;100.00;57155.34;5081192;28;8793;-76
2023/08/31 00:58:35;;;;;;;;;1.00;1.00;;;;;-146.67;100.00;57155.34;5081615;28;8845;-76
2023/08/31 01:01:22;;;;;;;;;2.25;1.00;;;;;-146.67;100.00;57155.34;5081041;28;8822;-76
2023/08/31 01:04:14;;;;;;;;;4.25;1.75;;;;;-146.67;100.00;57155.34;5080731;28;10219;-76
2023/08/31 01:07:12;;;;;;;;;2.00;2.00;;;;;-146.67;100.00;57155.34;5081021;28;10065;-76
2023/08/31 01:09:57;;;;;;;;;2.00;1.25;;;;;-146.67;100.00;57155.34;5021272;28;10411;-76
2023/08/31 01:12:34;;;;;;;;;1.00;1.00;;;;;-146.67;100.00;57155.34;5040066;28;10374;-76
2023/08/31 01:15:10;;;;;;;;;3.75;2.00;;;;;-146.67;100.00;57155.34;5023638;28;10317;-76
2023/08/31 01:17:54;;;;;;;;;2.50;1.25;;;;;-146.67;100.00;57155.34;5023768;28;10498;-76
2023/08/31 01:20:31;;;;;;;;;1.25;1.00;;;;;-146.67;100.00;57155.34;5040392;28;10238;-76
2023/08/31 01:23:06;;;;;;;;;2.00;2.00;;;;;-146.67;100.00;57155.34;5020944;28;10526;-76
2023/08/31 01:25:33;;;;;;;;;4.50;1.00;;;;;-146.67;100.00;57155.34;5021094;28;10261;-76
2023/08/31 01:27:59;;;;;;;;;3.25;0.25;;;;;-146.67;100.00;57155.34;5021508;28;10197;-76
2023/08/31 01:30:24;;;;;;;;;2.25;1.50;;;;;-146.67;100.00;57155.34;5021836;28;10126;-76
2023/08/31 01:32:50;;;;;;;;;2.75;1.25;;;;;-146.67;100.00;57155.34;5001626;28;10432;-76
2023/08/31 01:35:18;;;;;;;;;1.00;1.00;;;;;-146.67;100.00;57155.34;5000422;28;8815;-76
2023/08/31 01:37:50;;;;;;;;;3.50;2.00;;;;;-146.67;100.00;57155.34;5038266;28;8828;-76
2023/08/31 01:40:28;;;;;;;;;2.00;1.75;;;;;-146.67;100.00;57155.34;5021872;28;10169;-76
2023/08/31 01:42:55;;;;;;;;;1.00;1.00;;;;;-146.67;100.00;57155.34;5021221;28;10574;-76
2023/08/31 01:45:22;;;;;;;;;0.25;0.25;;;;;-146.67;100.00;57155.34;5005583;28;10198;-76
2023/08/31 01:47:48;;;;;;;;;1.75;1.75;;;;;-146.67;100.00;57155.34;5078350;28;9827;-76
2023/08/31 01:50:13;;;;;;;;;1.50;1.00;;;;;-146.67;100.00;57155.34;5065088;28;10215;-76
2023/08/31 01:52:38;;;;;;;;;3.00;2.50;;;;;-146.67;100.00;57155.34;5065928;28;10315;-76
2023/08/31 01:55:05;;;;;;;;;1.50;1.50;;;;;-146.67;100.00;57155.34;5083752;28;8822;-76
2023/08/31 01:57:31;;;;;;;;;5.00;2.00;;;;;-146.67;100.00;57155.34;5066212;28;8747;-76
2023/08/31 01:59:57;;;;;;;;;2.00;2.00;;;;;-146.67;100.00;57155.34;5083413;28;10320;-76
2023/08/31 02:02:22;;;;;;;;;1.00;1.00;;;;;-146.67;100.00;57155.34;5084012;28;10589;-76
2023/08/31 02:04:48;;;;;;;;;2.00;2.00;;;;;-146.67;100.00;57155.34;5082294;28;8892;-77
2023/08/31 02:07:13;;;;;;;;;6.50;2.00;;;;;-146.67;100.00;57155.34;5083967;28;8810;-76
2023/08/31 02:09:39;;;;;;;;;3.25;1.75;;;;;-146.67;100.00;57155.34;5084312;28;8770;-76
2023/08/31 02:12:05;;;;;;;;;1.25;1.25;;;;;-146.67;100.00;57155.34;5065293;28;10034;-76
2023/08/31 02:14:30;;;;;;;;;3.00;1.25;;;;;-146.67;100.00;57155.34;5083496;28;8767;-76
2023/08/31 02:16:55;;;;;;;;;1.00;1.00;;;;;-146.67;100.00;57155.34;5099080;28;8848;-76
2023/08/31 02:19:21;;;;;;;;;1.00;1.00;;;;;-146.67;100.00;57155.34;5082889;28;8881;-76
2023/08/31 02:21:46;;;;;;;;;2.50;2.25;;;;;-146.67;100.00;57155.34;5082344;28;8798;-76
2023/08/31 02:24:11;;;;;;;;;1.00;1.00;;;;;-146.67;100.00;57155.34;5083420;28;8806;-76
2023/08/31 02:26:37;;;;;;;;;2.00;1.00;;;;;-146.67;100.00;57155.34;5065561;28;8851;-76
2023/08/31 02:29:03;;;;;;;;;5.00;1.25;;;;;-146.67;100.00;57155.34;5082739;28;8919;-76
2023/08/31 02:31:29;;;;;;;;;1.75;1.00;;;;;-146.67;100.00;57155.34;5062214;28;10079;-76
2023/08/31 02:33:54;;;;;;;;;1.50;1.50;;;;;-146.67;100.00;57155.34;5077662;28;10339;-76
2023/08/31 02:36:20;;;;;;;;;2.00;1.50;;;;;-146.67;100.00;57155.34;5083033;28;8849;-76
2023/08/31 02:38:46;;;;;;;;;2.75;2.00;;;;;-146.67;100.00;57155.34;5083648;28;8787;-76
2023/08/31 02:41:11;;;;;;;;;3.75;2.75;;;;;-146.67;100.00;57155.34;5082860;28;10499;-76
2023/08/31 02:43:37;;;;;;;;;1.00;1.00;;;;;-146.67;100.00;57155.34;5083364;28;8778;-76
2023/08/31 02:46:03;;;;;;;;;2.75;2.00;;;;;-146.67;100.00;57155.34;5083005;28;8791;-76
2023/08/31 02:48:29;;;;;;;;;2.00;2.00;;;;;-146.67;100.00;57155.34;5081784;28;8891;-76
2023/08/31 02:50:57;;;;;;;;;2.00;1.00;;;;;-146.67;100.00;57155.34;5064878;28;10451;-76
2023/08/31 02:53:22;;;;;;;;;2.50;1.75;;;;;-146.67;100.00;57155.34;5082897;28;10340;-76
2023/08/31 02:55:50;;;;;;;;;3.00;2.00;;;;;-146.67;100.00;57155.34;5083178;28;10228;-76
2023/08/31 02:58:16;;;;;;;;;6.00;2.00;;;;;-146.67;100.00;57155.34;5082735;28;8795;-76
2023/08/31 03:00:42;;;;;;;;;3.00;1.25;;;;;-146.67;100.00;57155.34;5083004;28;10670;-76
2023/08/31 03:03:08;;;;;;;;;1.00;1.00;;;;;-146.67;100.00;57155.34;5064718;28;8805;-76
2023/08/31 03:05:34;;;;;;;;;3.25;3.00;;;;;-146.67;100.00;57155.34;5065071;28;10090;-76
2023/08/31 03:07:59;;;;;;;;;2.00;2.00;;;;;-146.67;100.00;57155.34;5065018;28;10307;-77
2023/08/31 03:10:25;;;;;;;;;0.00;0.00;;;;;-146.67;100.00;57155.34;5082458;28;9557;-76
2023/08/31 03:12:50;;;;;;;;;1.00;1.00;;;;;-146.67;100.00;57155.34;5083041;28;8810;-76
2023/08/31 03:15:16;;;;;;;;;3.25;1.25;;;;;-146.67;100.00;57155.34;5082526;28;9546;-76
2023/08/31 03:17:41;;;;;;;;;2.00;2.00;;;;;-146.67;100.00;57155.34;5082229;28;8814;-76
2023/08/31 03:20:07;;;;;;;;;2.00;2.00;;;;;-146.67;100.00;57155.34;5082114;28;8782;-76
2023/08/31 03:22:32;;;;;;;;;1.50;1.00;;;;;-146.67;100.00;57155.34;5082164;28;8719;-76
2023/08/31 03:24:58;;;;;;;;;2.75;2.75;;;;;-146.67;100.00;57155.34;5082941;28;10239;-76
2023/08/31 03:27:23;;;;;;;;;3.00;1.50;;;;;-146.67;100.00;57155.34;5082814;28;8775;-76
2023/08/31 03:29:48;;;;;;;;;3.50;2.75;;;;;-146.67;100.00;57155.34;5091963;28;8804;-76
2023/08/31 03:32:14;;;;;;;;;1.75;1.50;;;;;-146.67;100.00;57155.34;5082871;28;8804;-77
2023/08/31 03:34:39;;;;;;;;;1.25;1.25;;;;;-146.67;100.00;57155.34;5063776;28;8972;-76
2023/08/31 03:37:05;;;;;;;;;3.00;1.00;;;;;-146.67;100.00;57155.34;5064652;28;8868;-76
2023/08/31 03:39:30;;;;;;;;;2.50;2.00;;;;;-146.67;100.00;57155.34;5082461;28;8897;-76
2023/08/31 03:41:56;;;;;;;;;2.75;2.75;;;;;-146.67;100.00;57155.34;5064273;28;8806;-76
2023/08/31 03:44:21;;;;;;;;;2.25;2.25;;;;;-146.67;100.00;57155.34;5082497;28;8767;-76
2023/08/31 03:46:47;;;;;;;;;3.00;2.00;;;;;-146.67;100.00;57155.34;5097368;28;8817;-76
2023/08/31 03:49:12;;;;;;;;;4.00;2.50;;;;;-146.67;100.00;57155.34;5081167;28;9900;-76
2023/08/31 03:51:38;;;;;;;;;1.00;1.00;;;;;-146.67;100.00;57155.34;5063523;28;8802;-76
2023/08/31 03:54:03;;;;;;;;;4.25;1.50;;;;;-146.67;100.00;57155.34;5097853;28;8908;-76
2023/08/31 03:56:29;;;;;;;;;5.00;2.00;;;;;-146.67;100.00;57155.34;5082218;28;8794;-76
2023/08/31 03:58:54;;;;;;;;;1.25;1.00;;;;;-146.67;100.00;57155.34;5081508;28;8909;-76
2023/08/31 04:01:19;;;;;;;;;1.25;1.25;;;;;-146.67;100.00;57155.34;5080745;28;9530;-76
2023/08/31 04:03:45;;;;;;;;;1.75;1.75;;;;;-146.67;100.00;57155.34;5081857;28;8797;-76
2023/08/31 04:06:10;;;;;;;;;1.00;1.00;;;;;-146.67;100.00;57155.34;5087498;28;8797;-77
2023/08/31 04:08:36;;;;;;;;;2.50;2.00;;;;;-146.67;100.00;57155.34;5082192;28;8818;-76
2023/08/31 04:11:01;;;;;;;;;2.00;1.50;;;;;-146.67;100.00;57155.34;5081980;28;8771;-76
2023/08/31 04:13:27;;;;;;;;;3.00;3.00;;;;;-146.67;100.00;57155.34;5063934;28;8821;-76
2023/08/31 04:15:53;;;;;;;;;1.50;0.50;;;;;-146.67;100.00;57155.34;5081378;28;8767;-76
2023/08/31 04:18:19;;;;;;;;;3.00;2.00;;;;;-146.67;100.00;57155.34;5063906;28;10490;-76
2023/08/31 04:20:52;;;;;;;;;1.00;1.00;;;;;-146.67;100.00;57155.34;5081256;28;10369;-76
2023/08/31 04:23:19;;;;;;;;;4.00;1.00;;;;;-146.67;100.00;57155.34;5081071;28;8775;-76
2023/08/31 04:25:45;;;;;;;;;2.00;2.00;;;;;-146.67;100.00;57155.34;5080985;28;10351;-76
2023/08/31 04:28:10;;;;;;;;;1.75;1.50;;;;;-146.67;100.00;57155.34;5063197;28;10273;-76
2023/08/31 04:30:36;;;;;;;;;2.00;2.00;;;;;-146.67;100.00;57155.34;5081331;28;10326;-76
2023/08/31 04:33:01;;;;;;;;;3.25;2.25;;;;;-146.67;100.00;57155.34;5081401;28;8842;-76
2023/08/31 04:35:26;;;;;;;;;2.25;1.75;;;;;-146.67;100.00;57155.34;5080871;28;8790;-76
2023/08/31 04:37:52;;;;;;;;;2.75;2.00;;;;;-146.67;100.00;57155.34;5082020;28;8806;-76
2023/08/31 04:40:17;;;;;;;;;3.50;2.75;;;;;-146.67;100.00;57155.34;5081403;28;8937;-76
2023/08/31 04:42:43;;;;;;;;;5.00;2.25;;;;;-146.67;100.00;57155.34;5063889;28;8868;-76
2023/08/31 04:45:10;;;;;;;;;2.00;1.00;;;;;-146.67;100.00;57155.34;5080231;28;8794;-76
2023/08/31 04:47:35;;;;;;;;;3.50;2.25;;;;;-146.67;100.00;57155.34;5085459;28;8802;-76
2023/08/31 04:50:01;;;;;;;;;2.00;1.50;;;;;-146.67;100.00;57155.34;5084753;28;10517;-76
2023/08/31 04:52:26;;;;;;;;;2.00;2.00;;;;;-146.67;100.00;57155.34;5084753;28;8790;-76
2023/08/31 04:54:51;;;;;;;;;4.50;3.00;;;;;-146.67;100.00;57155.34;5085221;28;8793;-76
2023/08/31 04:57:17;;;;;;;;;2.75;2.00;;;;;-146.67;100.00;57155.34;5084924;28;8799;-76
2023/08/31 04:59:42;;;;;;;;;2.75;2.00;;;;;-146.67;100.00;57155.34;5095853;28;8776;-76
2023/08/31 05:02:07;;;;;;;;;2.75;2.00;;;;;-146.67;100.00;57155.34;5105324;28;8793;-77
2023/08/31 05:04:33;;;;;;;;;1.50;1.00;;;;;-146.67;100.00;57155.34;5086093;28;8798;-76
2023/08/31 05:06:58;;;;;;;;;4.50;3.00;;;;;-146.67;100.00;57155.34;5066775;28;9943;-75
2023/08/31 05:09:25;;;;;;;;;1.00;1.00;;;;;-146.67;100.00;57155.34;5083161;28;8793;-77
2023/08/31 05:11:50;;;;;;;;;2.25;2.00;;;;;-146.67;100.00;57155.34;5084855;28;8715;-77
2023/08/31 05:14:16;;;;;;;;;3.00;2.00;;;;;-146.67;100.00;57155.34;5083804;28;10480;-78
2023/08/31 05:16:43;;;;;;;;;2.75;2.00;;;;;-146.67;100.00;57155.34;5082170;28;9972;-77
2023/08/31 05:19:08;;;;;;;;;1.00;1.00;;;;;-146.67;100.00;57155.34;5084860;28;8773;-77
2023/08/31 05:21:34;;;;;;;;;2.00;2.00;;;;;-146.67;100.00;57155.34;5065464;28;10315;-77
2023/08/31 05:23:59;;;;;;;;;3.00;1.25;;;;;-146.67;100.00;57155.34;5066646;28;8786;-77
2023/08/31 05:26:25;;;;;;;;;6.25;3.00;;;;;-146.67;100.00;57155.34;5082926;28;10132;-78
2023/08/31 05:28:50;;;;;;;;;1.75;1.75;;;;;-146.67;100.00;57155.34;5065981;28;8966;-77
2023/08/31 05:31:15;;;;;;;;;2.50;2.50;;;;;-146.67;100.00;57155.34;5066168;28;8778;-77
2023/08/31 05:33:41;;;;;;;;;4.00;2.00;;;;;-146.67;100.00;57155.34;5083463;28;8795;-77
2023/08/31 05:36:06;;;;;;;;;2.25;2.00;;;;;-146.67;100.00;57155.34;5084081;28;8881;-77
2023/08/31 05:38:32;;;;;;;;;2.00;0.75;;;;;-146.67;100.00;57155.34;5065671;28;8820;-77
2023/08/31 05:41:06;;;;;;;;;3.75;2.00;;;;;-146.67;100.00;57155.34;5084162;28;8945;-79
2023/08/31 05:43:32;;;;;;;;;3.00;1.75;;;;;-146.67;100.00;57155.34;5065847;28;8754;-76
2023/08/31 05:45:57;;;;;;;;;1.00;1.00;;;;;-146.67;100.00;57155.34;5082224;28;10509;-75
2023/08/31 05:48:23;;;;;;;;;3.00;1.00;;;;;-146.67;100.00;57155.34;5082662;28;10343;-76
2023/08/31 05:50:48;;;;;;;;;5.00;2.75;;;;;-146.67;100.00;57155.34;5083277;28;8781;-76
2023/08/31 05:53:14;;;;;;;;;3.75;2.00;;;;;-146.67;100.00;57155.34;5100783;28;8803;-77
2023/08/31 05:55:39;;;;;;;;;3.50;2.00;;;;;-146.67;100.00;57155.34;5082283;28;9971;-76
2023/08/31 05:58:05;;;;;;;;;3.75;2.00;;;;;-146.67;100.00;57155.34;5083414;28;8779;-76
2023/08/31 06:00:30;;;;;;;;;3.75;2.00;;;;;-146.67;100.00;57155.34;5083654;28;8771;-76
2023/08/31 06:02:56;;;;;;;;;2.50;2.50;;;;;-146.67;100.00;57155.34;5083571;28;8762;-76
2023/08/31 06:05:21;;;;;;;;;1.75;1.50;;;;;-146.67;100.00;57155.34;5065771;28;9972;-76
2023/08/31 06:07:46;;;;;;;;;3.25;1.00;;;;;-146.67;100.00;57155.34;5065331;28;8879;-76
2023/08/31 06:10:13;;;;;;;;;2.25;1.75;;;;;-146.67;100.00;57155.34;5083929;28;8797;-76
2023/08/31 06:12:38;;;;;;;;;4.00;0.50;;;;;-146.67;100.00;57155.34;5065134;28;8815;-75
2023/08/31 06:15:04;;;;;;;;;3.75;1.75;;;;;-146.67;100.00;57155.34;5082877;28;10534;-76
2023/08/31 06:17:30;;;;;;;;;2.50;1.00;;;;;-146.67;100.00;57155.34;5082617;28;8786;-75
2023/08/31 06:19:55;;;;;;;;;2.25;1.00;;;;;-146.67;100.00;57155.34;5064984;28;10341;-76
2023/08/31 06:22:22;;;;;;;;;1.75;1.75;;;;;-146.67;100.00;57155.34;5058733;28;8781;-76
2023/08/31 06:24:48;;;;;;;;;3.00;2.00;;;;;-146.67;100.00;57155.34;5083259;28;8763;-76
2023/08/31 06:27:15;;;;;;;;;4.00;1.00;;;;;-146.67;100.00;57155.34;5082784;28;10394;-77
2023/08/31 06:29:41;;;;;;;;;2.50;2.25;;;;;-146.67;100.00;57155.34;5082443;28;8723;-75
2023/08/31 06:32:06;;;;;;;;;1.00;1.00;;;;;-146.67;100.00;57155.34;5082774;28;10285;-75
2023/08/31 06:34:32;;;;;;;;;2.75;1.50;;;;;-146.67;100.00;57155.34;5083006;28;8860;-75
2023/08/31 06:36:58;;;;;;;;;3.50;2.00;;;;;-146.67;100.00;57155.34;5081488;28;8814;-75
2023/08/31 06:39:24;;;;;;;;;2.50;2.00;;;;;-146.67;100.00;57155.34;5082852;28;9852;-77
2023/08/31 06:41:49;;;;;;;;;3.00;2.00;;;;;-146.67;100.00;57155.34;5083024;28;8858;-77
2023/08/31 06:44:15;;;;;;;;;2.75;2.00;;;;;-146.67;100.00;57155.34;5082488;28;8792;-78
2023/08/31 06:46:40;;;;;;;;;5.00;2.75;;;;;-146.67;100.00;57155.34;5083739;28;9123;-77
2023/08/31 06:49:05;;;;;;;;;1.00;1.00;;;;;-146.67;100.00;57155.34;5098281;28;8806;-78
2023/08/31 06:51:37;;;;;;;;;0.50;0.50;;;;;-146.67;100.00;57155.34;5082458;28;8783;-77
2023/08/31 06:54:08;;;;;;;;;1.00;1.00;;;;;-146.67;100.00;57155.34;5081195;28;8787;-77
2023/08/31 06:56:34;;;;;;;;;2.25;2.00;;;;;-146.67;100.00;57155.34;5063700;28;11492;-78
2023/08/31 06:58:59;;;;;;;;;4.00;1.00;;;;;-146.67;100.00;57155.34;5083196;28;10480;-77
2023/08/31 07:01:25;;;;;;;;;3.75;1.00;;;;;-146.67;100.00;57155.34;5082184;28;8817;-78
2023/08/31 07:03:51;;;;;;;;;1.00;1.00;;;;;-146.67;100.00;57155.34;5082429;28;9331;-78
2023/08/31 07:06:16;;;;;;;;;3.25;2.00;;;;;-146.67;100.00;57155.34;5082402;28;8786;-78
2023/08/31 07:08:45;;;;;;;;;5.00;2.25;;;;;-146.67;100.00;57155.34;5080490;28;10459;-78
2023/08/31 07:11:10;;;;;;;;;2.75;0.50;;;;;-146.67;100.00;57155.34;5082502;28;8768;-77
2023/08/31 07:13:36;;;;;;;;;4.00;2.50;;;;;-146.67;100.00;57155.34;5081129;28;10330;-78
2023/08/31 07:16:02;;;;;;;;;2.50;2.00;;;;;-146.67;100.00;57155.34;5082733;28;9510;-78
2023/08/31 07:18:27;;;;;;;;;1.25;1.25;;;;;-146.67;100.00;57155.34;5082876;28;8732;-77
2023/08/31 07:20:52;;;;;;;;;3.00;1.00;;;;;-146.67;100.00;57155.34;5080795;28;11554;-78
2023/08/31 07:23:18;;;;;;;;;2.00;2.00;;;;;-146.67;100.00;57155.34;5082505;28;8831;-78
2023/08/31 07:25:43;;;;;;;;;3.25;2.25;;;;;-146.67;100.00;57155.34;5080736;28;8801;-78
2023/08/31 07:28:12;;;;;;;;;3.00;1.75;;;;;-146.67;100.00;57155.34;5080305;28;8817;-79
2023/08/31 07:30:37;;;;;;;;;3.00;2.00;;;;;-146.67;100.00;57155.34;5072785;28;8800;-79
2023/08/31 07:33:03;;;;;;;;;1.00;1.00;;;;;-146.67;100.00;57155.34;5067561;28;10162;-78
2023/08/31 07:35:30;;;;;;;;;1.50;1.50;;;;;-146.67;100.00;57155.34;5077109;28;8746;-78
2023/08/31 07:37:55;;;;;;;;;1.25;1.00;;;;;-146.67;100.00;57155.34;5081265;28;9812;-78
2023/08/31 07:40:21;;;;;;;;;2.00;1.00;;;;;-146.67;100.00;57155.34;5063386;28;9958;-79
2023/08/31 07:42:46;;;;;;;;;0.00;0.00;;;;;-146.67;100.00;57155.34;5062992;28;10206;-80
2023/08/31 07:45:12;;;;;;;;;4.00;2.25;;;;;-146.67;100.00;57155.34;5081106;28;8798;-79
2023/08/31 07:47:37;;;;;;;;;3.00;1.00;;;;;-146.67;100.00;57155.34;5081648;28;8820;-79
2023/08/31 07:50:03;;;;;;;;;2.00;2.00;;;;;-146.67;100.00;57155.34;5063362;28;8801;-82
2023/08/31 07:52:28;;;;;;;;;1.00;1.00;;;;;-146.67;100.00;57155.34;5081968;28;8797;-78
2023/08/31 07:54:54;;;;;;;;;1.00;1.00;;;;;-146.67;100.00;57155.34;5081129;28;8818;-79
2023/08/31 07:57:20;;;;;;;;;2.75;2.00;;;;;-146.67;100.00;57155.34;5082382;28;8856;-79
2023/08/31 07:59:45;;;;;;;;;3.75;2.00;;;;;-146.67;100.00;57155.34;5091826;28;8795;-79
2023/08/31 08:02:10;;;;;;;;;2.00;2.00;;;;;-146.67;100.00;57155.34;5102475;28;8772;-79
2023/08/31 08:04:36;;;;;;;;;2.00;2.00;;;;;-146.67;100.00;57155.34;5102375;28;8797;-79
2023/08/31 08:07:03;;;;;;;;;2.00;1.00;;;;;-146.67;100.00;57155.34;5085666;28;8950;-79
2023/08/31 08:09:29;;;;;;;;;1.00;1.00;;;;;-146.67;100.00;57155.34;5071091;28;8741;-79
2023/08/31 08:11:56;;;;;;;;;2.50;1.00;;;;;-146.67;100.00;57155.34;5068724;28;10043;-78
2023/08/31 08:14:21;;;;;;;;;3.00;1.00;;;;;-146.67;100.00;57155.34;5081505;28;9840;-78
2023/08/31 08:16:47;;;;;;;;;3.50;1.00;;;;;-146.67;100.00;57155.34;5080327;28;9898;-80
2023/08/31 08:19:12;;;;;;;;;0.75;0.75;;;;;-146.67;100.00;57155.34;5073309;28;8790;-80
2023/08/31 08:21:37;;;;;;;;;2.00;1.00;;;;;-146.67;100.00;57155.34;5082142;28;9972;-79
2023/08/31 08:24:03;;;;;;;;;1.75;1.75;;;;;-146.67;100.00;57155.34;5066639;28;8814;-77
2023/08/31 08:26:29;;;;;;;;;0.00;0.00;;;;;-146.67;100.00;57155.34;5085377;28;8864;-77
2023/08/31 08:28:54;;;;;;;;;1.00;1.00;;;;;-146.67;100.00;57155.34;5085565;28;8830;-78
2023/08/31 08:31:19;;;;;;;;;3.00;0.00;;;;;-146.67;100.00;57155.34;5084582;28;9115;-78
2023/08/31 08:33:45;;;;;;;;;0.67;0.00;;;;;-146.67;100.00;57155.34;5084873;28;8818;-78
2023/08/31 08:36:10;;;;;;;;;2.25;1.00;;;;;-146.67;100.00;57155.34;5065894;28;8814;-77
2023/08/31 08:38:35;;;;;;;;;4.00;1.00;;;;;-146.67;100.00;57155.34;5066755;28;8814;-79
2023/08/31 08:41:07;;;;;;;;;2.00;0.00;;;;;-146.67;100.00;57155.34;5067099;28;9851;-79
2023/08/31 08:43:34;;;;;;;;;2.50;1.50;;;;;-146.67;100.00;57155.34;5085582;28;8741;-77
2023/08/31 08:46:05;;;;;;;;;1.00;1.00;;;;;-146.67;100.00;57155.34;5085378;28;9604;-82
2023/08/31 08:48:33;;;;;;;;;1.00;0.00;;;;;-146.67;100.00;57155.34;5060476;28;9553;-79
2023/08/31 08:50:59;;;;;;;;;1.75;1.75;;;;;-146.67;100.00;57155.34;5081403;28;9593;-80
2023/08/31 08:53:25;;;;;;;;;2.75;1.00;;;;;-146.67;100.00;57155.34;5066067;28;9598;-79
2023/08/31 08:55:51;;;;;;;;;1.00;1.00;;;;;-146.67;100.00;57155.34;5083293;28;9755;-79
2023/08/31 08:58:16;;;;;;;;;4.00;3.00;;;;;-146.67;100.00;57155.34;5078096;28;9776;-80
2023/08/31 09:00:42;;;;;;;;;0.75;0.75;;;;;-146.67;100.00;57155.34;5083335;28;9843;-78
2023/08/31 09:03:08;;;;;;;;;1.00;1.00;;;;;-146.67;100.00;57155.34;5065867;28;8814;-79
2023/08/31 09:05:34;;;;;;;;;4.00;1.00;;;;;-146.67;100.00;57155.34;5083843;28;9504;-80
2023/08/31 09:08:03;;;;;;;;;0.00;0.00;;;;;-146.67;100.00;57155.34;5084413;28;8916;-82
2023/08/31 09:10:45;;;;;;;;;2.75;1.75;;;;;-146.67;100.00;57155.34;5065516;28;10019;-80
2023/08/31 09:13:17;;;;;;;;;3.50;2.00;;;;;-146.67;100.00;57155.34;5097963;28;9827;-80
2023/08/31 09:15:48;;;;;;;;;0.00;0.00;;;;;-146.67;100.00;57155.34;5062418;28;9849;-80
2023/08/31 09:18:23;;;;;;;;;2.00;1.00;;;;;-146.67;100.00;57155.34;5098980;28;9560;-80
2023/08/31 09:20:48;;;;;;;;;1.00;1.00;;;;;-146.67;100.00;57155.34;5096254;28;10221;-81
2023/08/31 09:23:16;;;;;;;;;1.50;1.00;;;;;-146.67;100.00;57155.34;5090855;28;9646;-77
2023/08/31 09:25:46;;;;;;;;;1.00;1.00;;;;;-146.67;100.00;57155.34;5094684;28;8852;-76
2023/08/31 09:28:15;;;;;;;;;2.00;1.00;;;;;-146.67;100.00;57155.34;5070244;28;9597;-76
2023/08/31 09:30:42;;;;;;;;;1.00;1.00;;;;;-146.67;100.00;57155.34;5083928;28;10600;-77
2023/08/31 09:33:09;;;;;;;;;0.25;0.25;;;;;-146.67;100.00;57155.34;5065457;28;9565;-79
2023/08/31 09:35:40;;;;;;;;;2.50;1.00;;;;;-146.67;100.00;57155.34;5065452;28;9589;-77
2023/08/31 09:38:09;;;;;;;;;0.75;0.00;;;;;-146.67;100.00;57155.34;5065614;28;9701;-77
2023/08/31 09:40:36;;;;;;;;;0.75;0.00;;;;;-146.67;100.00;57155.34;5083547;28;10743;-79
2023/08/31 09:43:02;;;;;;;;;1.25;0.00;;;;;-146.67;100.00;57155.34;5059610;28;9585;-81
2023/08/31 09:45:33;;;;;;;;;1.00;0.00;;;;;-146.67;100.00;57155.34;5092561;28;9574;-81
2023/08/31 09:48:01;;;;;;;;;1.50;0.75;;;;;-146.67;100.00;57155.34;5103313;28;9422;-81
2023/08/31 09:50:30;;;;;;;;;2.00;0.67;;;;;-146.67;100.00;57155.34;5084846;28;10143;-80
2023/08/31 09:53:04;;;;;;;;;1.67;1.67;;;;;-146.67;100.00;57155.34;5084659;28;9541;-79
2023/08/31 09:55:32;;;;;;;;;1.33;0.67;;;;;-146.67;100.00;57155.34;5083923;28;9654;-80
2023/08/31 09:58:02;;;;;;;;;2.25;0.00;;;;;-146.67;100.00;57155.34;5081116;28;9584;-80
2023/08/31 10:00:31;;;;;;;;;2.00;1.00;;;;;-146.67;100.00;57155.34;5063528;28;10352;-80
2023/08/31 10:03:03;;;;;;;;;2.00;1.00;;;;;-146.67;100.00;57155.34;5081462;28;9555;-80
2023/08/31 10:05:28;;;;;;;;;1.00;1.00;;;;;-146.67;100.00;57155.34;5065214;28;9635;-82
2023/08/31 10:07:54;;;;;;;;;2.33;2.00;;;;;-146.67;100.00;57155.34;5083059;28;9446;-80
2023/08/31 10:10:22;;;;;;;;;1.00;1.00;;;;;-146.67;100.00;57155.34;5082185;28;8764;-80
2023/08/31 10:12:54;;;;;;;;;2.00;2.00;;;;;-146.67;100.00;57155.34;5067250;28;9745;-81
2023/08/31 10:15:19;;;;;;;;;2.25;1.25;;;;;-146.67;100.00;57155.34;5064537;28;9783;-79
2023/08/31 10:17:45;;;;;;;;;3.75;2.00;;;;;-146.67;100.00;57155.34;5067110;28;9648;-79
2023/08/31 10:20:18;;;;;;;;;4.00;1.00;;;;;-146.67;100.00;57155.34;5051495;28;10139;-79
2023/08/31 10:22:44;;;;;;;;;4.50;2.75;;;;;-146.67;100.00;57155.34;5081264;28;9487;-79
2023/08/31 10:25:11;;;;;;;;;2.00;2.00;;;;;-146.67;100.00;57155.34;5081984;28;9613;-80
2023/08/31 10:27:46;;;;;;;;;4.00;2.75;;;;;-146.67;100.00;57155.34;5082014;28;9374;-79
2023/08/31 10:30:24;;;;;;;;;2.75;1.75;;;;;-146.67;100.00;57155.34;5064281;28;10031;-80
2023/08/31 10:33:16;;;;;;;;;1.67;1.67;;;;;-146.67;100.00;57155.34;5062400;28;9517;-81
2023/08/31 10:35:47;;;;;;;;;2.00;1.33;;;;;-146.67;100.00;57155.34;5079716;28;10549;-80
2023/08/31 10:38:25;;;;;;;;;3.67;2.00;;;;;-146.67;100.00;57155.34;5082031;28;9426;-80
2023/08/31 10:41:35;;;;;;;;;1.67;1.00;;;;;-146.67;100.00;57155.34;5079064;28;9483;-79
2023/08/31 10:44:01;;;;;;;;;1.00;1.00;;;;;-146.67;100.00;57155.34;5080475;28;9435;-81
2023/08/31 10:46:34;;;;;;;;;4.00;2.00;;;;;-146.67;100.00;57155.34;5066055;28;9511;-81
2023/08/31 10:49:08;;;;;;;;;4.25;4.00;;;;;-146.67;100.00;57155.34;5075669;28;8804;-81
2023/08/31 10:51:34;;;;;;;;;5.25;3.00;;;;;-146.67;100.00;57155.34;5088305;28;10149;-80
2023/08/31 10:54:19;;;;;;;;;1.00;1.00;;;;;-146.67;100.00;57155.34;5085711;28;9788;-76
2023/08/31 10:56:51;;;;;;;;;2.00;2.00;;;;;-146.67;100.00;57155.34;5078798;28;8736;-79
2023/08/31 10:59:17;;;;;;;;;5.00;2.00;;;;;-146.67;100.00;57155.34;5062941;28;9628;-77
2023/08/31 11:01:54;;;;;;;;;4.67;2.00;;;;;-146.67;100.00;57155.34;5064012;28;10045;-77
2023/08/31 11:04:24;;;;;;;;;5.33;3.00;;;;;-146.67;100.00;57155.34;5091980;28;9350;-77
2023/08/31 11:07:08;;;;;;;;;3.00;2.00;;;;;-146.67;100.00;57155.34;5064534;28;9297;-80
2023/08/31 11:09:34;;;;;;;;;2.25;1.00;;;;;-146.67;100.00;57155.34;5064662;28;9653;-80
2023/08/31 11:11:59;;;;;;;;;1.00;1.00;;;;;-146.67;100.00;57155.34;5082515;28;9623;-80
2023/08/31 11:14:25;;;;;;;;;4.00;3.00;;;;;-146.67;100.00;57155.34;5087091;28;9530;-81